Time;durP1;ratioP1;P1;durP2;ratioP2;P2;SDS_P1;SDS_P2;PMS_P1;PMS_P2;Temp;Humidity;BMP_temperature;BMP_pressure;BME280_temperature;BME280_humidity;BME280_pressure;Samples;Min_cycle;Max_cycle;Signal;HPM_P1;HPM_P2
2021/09/08 00:01:17;;;;;;;16.98;11.60;;;16.90;95.40;;;;;;5067367;28;20024;-65
2021/09/08 00:03:43;;;;;;;16.88;11.57;;;16.90;95.40;;;;;;5066314;28;20024;-66
2021/09/08 00:06:08;;;;;;;16.88;11.50;;;16.90;95.40;;;;;;5064179;28;20082;-66
2021/09/08 00:08:34;;;;;;;15.38;11.70;;;16.90;95.30;;;;;;5064410;28;20040;-65
2021/09/08 00:11:00;;;;;;;18.58;11.95;;;16.80;95.30;;;;;;5066426;28;20032;-65
2021/09/08 00:13:26;;;;;;;17.23;12.38;;;16.80;95.40;;;;;;5063959;28;20037;-67
2021/09/08 00:15:51;;;;;;;15.73;11.10;;;16.80;95.40;;;;;;5064375;28;20036;-66
2021/09/08 00:18:18;;;;;;;16.52;11.32;;;16.80;95.30;;;;;;5064569;28;20501;-66
2021/09/08 00:20:44;;;;;;;18.58;12.90;;;16.80;95.30;;;;;;5068582;28;20055;-66
2021/09/08 00:23:10;;;;;;;22.85;12.63;;;16.70;95.40;;;;;;5067328;28;20348;-66
2021/09/08 00:25:35;;;;;;;17.88;11.95;;;16.80;95.40;;;;;;5066629;28;20627;-66
2021/09/08 00:28:01;;;;;;;16.95;11.45;;;16.70;95.40;;;;;;5063623;28;20036;-66
2021/09/08 00:30:27;;;;;;;16.80;11.35;;;16.70;95.40;;;;;;5068755;28;20040;-65
2021/09/08 00:32:53;;;;;;;15.93;11.18;;;16.70;95.40;;;;;;5065283;28;20035;-66
2021/09/08 00:35:19;;;;;;;19.58;12.60;;;16.70;95.40;;;;;;5067153;28;20578;-65
2021/09/08 00:37:45;;;;;;;16.88;12.15;;;16.70;95.40;;;;;;5068405;28;20041;-66
2021/09/08 00:40:11;;;;;;;17.65;11.75;;;16.70;95.40;;;;;;5065230;28;20067;-65
2021/09/08 00:42:37;;;;;;;15.73;11.00;;;16.70;95.40;;;;;;5066586;28;20423;-64
2021/09/08 00:45:03;;;;;;;13.85;10.48;;;16.70;95.40;;;;;;5065665;28;20087;-66
2021/09/08 00:47:29;;;;;;;17.23;11.82;;;16.60;95.40;;;;;;5064845;28;20021;-66
2021/09/08 00:49:54;;;;;;;13.75;10.23;;;16.60;95.40;;;;;;5067557;28;20154;-66
2021/09/08 00:52:21;;;;;;;16.65;11.43;;;16.60;95.40;;;;;;5068543;28;20021;-66
2021/09/08 00:54:48;;;;;;;16.80;11.05;;;16.60;95.30;;;;;;5063494;28;20099;-66
2021/09/08 00:57:16;;;;;;;15.73;10.95;;;16.60;95.30;;;;;;5075792;28;20162;-67
2021/09/08 00:59:43;;;;;;;16.30;10.45;;;16.60;95.30;;;;;;5062515;28;20028;-65
2021/09/08 01:02:09;;;;;;;17.55;10.65;;;16.60;95.30;;;;;;5062610;28;20040;-66
2021/09/08 01:04:34;;;;;;;16.25;10.77;;;16.60;95.60;;;;;;5059365;28;20020;-65
2021/09/08 01:07:04;;;;;;;17.40;10.57;;;16.60;95.30;;;;;;5064222;28;20044;-65
2021/09/08 01:09:30;;;;;;;14.43;10.63;;;16.50;95.30;;;;;;5062152;28;20025;-66
2021/09/08 01:11:56;;;;;;;16.58;11.23;;;16.50;95.30;;;;;;5061928;28;20029;-66
2021/09/08 01:14:22;;;;;;;16.52;10.48;;;16.50;95.40;;;;;;5061357;28;20086;-66
2021/09/08 01:16:52;;;;;;;18.42;10.18;;;16.50;95.30;;;;;;5061719;28;20020;-66
2021/09/08 01:19:19;;;;;;;16.85;11.38;;;16.50;95.40;;;;;;5062608;28;20093;-65
2021/09/08 01:21:45;;;;;;;15.80;9.80;;;16.50;95.30;;;;;;5060723;28;20031;-66
2021/09/08 01:24:11;;;;;;;14.25;8.95;;;16.50;95.30;;;;;;5062841;28;20036;-66
2021/09/08 01:26:38;;;;;;;13.27;10.00;;;16.50;95.30;;;;;;5059252;28;20108;-66
2021/09/08 01:29:04;;;;;;;16.05;10.05;;;16.40;95.20;;;;;;5057843;28;20479;-66
2021/09/08 01:31:30;;;;;;;15.90;9.88;;;16.40;95.40;;;;;;5061105;28;20044;-66
2021/09/08 01:33:56;;;;;;;15.30;10.02;;;16.40;95.40;;;;;;5063369;28;20024;-66
2021/09/08 01:36:21;;;;;;;13.82;10.23;;;16.40;95.40;;;;;;5059078;28;20032;-65
2021/09/08 01:38:48;;;;;;;14.57;9.68;;;16.40;95.40;;;;;;5062286;28;20096;-65
2021/09/08 01:41:13;;;;;;;12.80;8.75;;;16.40;95.40;;;;;;5061885;28;20572;-66
2021/09/08 01:43:39;;;;;;;16.38;10.05;;;16.40;95.40;;;;;;5063980;28;20032;-66
2021/09/08 01:46:05;;;;;;;13.55;9.05;;;16.40;95.50;;;;;;5062610;28;20765;-65
2021/09/08 01:48:30;;;;;;;12.70;8.95;;;16.40;95.40;;;;;;5060123;28;20566;-66
2021/09/08 01:50:56;;;;;;;15.07;9.48;;;16.30;95.50;;;;;;5060901;28;20032;-65
2021/09/08 01:53:23;;;;;;;13.50;10.23;;;16.30;95.50;;;;;;5059293;28;20028;-66
2021/09/08 01:55:49;;;;;;;11.50;8.15;;;16.30;95.50;;;;;;5060695;28;20043;-66
2021/09/08 01:58:15;;;;;;;13.63;8.40;;;16.30;95.40;;;;;;5061537;28;20021;-66
2021/09/08 02:00:42;;;;;;;15.35;8.25;;;16.30;95.50;;;;;;5061068;28;20040;-65
2021/09/08 02:03:07;;;;;;;12.88;9.68;;;16.30;95.40;;;;;;5061098;28;20580;-65
2021/09/08 02:05:33;;;;;;;14.50;8.63;;;16.30;95.50;;;;;;5042903;28;20029;-65
2021/09/08 02:07:59;;;;;;;15.07;8.13;;;16.30;95.50;;;;;;5059772;28;20075;-65
2021/09/08 02:10:24;;;;;;;15.00;9.40;;;16.30;95.50;;;;;;5061799;28;20569;-66
2021/09/08 02:12:50;;;;;;;12.98;9.00;;;16.30;95.50;;;;;;5060377;28;20089;-67
2021/09/08 02:15:16;;;;;;;13.57;9.32;;;16.20;95.40;;;;;;5059271;28;20583;-65
2021/09/08 02:17:42;;;;;;;11.73;8.50;;;16.20;95.50;;;;;;5060720;28;20094;-66
2021/09/08 02:20:09;;;;;;;13.27;9.13;;;16.20;95.50;;;;;;5058976;28;20021;-66
2021/09/08 02:22:34;;;;;;;12.18;8.88;;;16.20;95.50;;;;;;5061685;28;20033;-65
2021/09/08 02:25:00;;;;;;;12.00;8.15;;;16.20;95.60;;;;;;5058646;28;20075;-65
2021/09/08 02:27:27;;;;;;;12.63;8.95;;;16.20;95.60;;;;;;5062408;28;20114;-64
2021/09/08 02:29:53;;;;;;;12.63;8.68;;;16.20;95.60;;;;;;5059917;28;20024;-65
2021/09/08 02:32:19;;;;;;;13.00;8.27;;;16.20;95.60;;;;;;5060332;28;20482;-66
2021/09/08 02:34:45;;;;;;;11.18;8.32;;;16.10;95.60;;;;;;5058004;28;20090;-65
2021/09/08 02:37:11;;;;;;;14.25;9.18;;;16.10;95.60;;;;;;5057727;28;20040;-66
2021/09/08 02:39:37;;;;;;;13.70;8.48;;;16.10;95.50;;;;;;5059115;28;20102;-65
2021/09/08 02:42:03;;;;;;;13.55;8.18;;;16.10;95.40;;;;;;5059111;28;20039;-66
2021/09/08 02:44:29;;;;;;;12.15;8.25;;;16.10;95.50;;;;;;5059327;28;20052;-65
2021/09/08 02:46:55;;;;;;;11.73;8.05;;;16.10;95.60;;;;;;5063132;28;20501;-64
2021/09/08 02:49:20;;;;;;;12.93;8.70;;;16.10;95.50;;;;;;5059586;28;20403;-65
2021/09/08 02:51:46;;;;;;;12.23;8.05;;;16.10;95.50;;;;;;5062774;28;20028;-67
2021/09/08 02:54:12;;;;;;;11.68;8.18;;;16.10;95.50;;;;;;5062556;28;20048;-65
2021/09/08 02:56:37;;;;;;;10.75;7.40;;;16.00;95.50;;;;;;5064452;28;20028;-66
2021/09/08 02:59:03;;;;;;;12.50;8.07;;;16.10;95.60;;;;;;5064194;28;20150;-66
2021/09/08 03:01:29;;;;;;;11.73;8.18;;;16.00;95.60;;;;;;5063717;28;20032;-66
2021/09/08 03:03:54;;;;;;;10.60;8.57;;;16.00;95.70;;;;;;5063450;28;20028;-66
2021/09/08 03:06:20;;;;;;;13.57;8.70;;;16.00;95.70;;;;;;5064895;28;20034;-65
2021/09/08 03:08:46;;;;;;;12.35;8.05;;;16.00;95.60;;;;;;5061540;28;20044;-65
2021/09/08 03:11:11;;;;;;;12.65;8.30;;;16.00;95.60;;;;;;5064130;28;20040;-64
2021/09/08 03:13:37;;;;;;;13.50;8.07;;;16.00;95.60;;;;;;5065342;28;20122;-66
2021/09/08 03:16:03;;;;;;;11.88;8.77;;;16.00;95.60;;;;;;5063534;28;20073;-66
2021/09/08 03:18:28;;;;;;;12.73;8.55;;;16.00;95.70;;;;;;5061075;28;20017;-66
2021/09/08 03:20:54;;;;;;;12.13;8.38;;;16.00;95.70;;;;;;5062731;28;20494;-66
2021/09/08 03:23:20;;;;;;;12.60;8.75;;;16.00;95.60;;;;;;5064226;28;20021;-66
2021/09/08 03:25:45;;;;;;;12.30;8.25;;;15.90;95.70;;;;;;5061809;28;20173;-66
2021/09/08 03:28:11;;;;;;;14.32;8.25;;;15.90;95.70;;;;;;5061655;28;20044;-68
2021/09/08 03:30:37;;;;;;;11.23;8.10;;;15.90;95.70;;;;;;5065038;28;20434;-66
2021/09/08 03:33:03;;;;;;;12.40;8.00;;;15.90;95.70;;;;;;5062526;28;20033;-65
2021/09/08 03:35:29;;;;;;;12.10;7.93;;;15.90;95.70;;;;;;5065639;28;20033;-65
2021/09/08 03:37:55;;;;;;;10.40;7.70;;;15.90;95.70;;;;;;5062369;28;20021;-66
2021/09/08 03:40:21;;;;;;;16.00;8.55;;;15.90;95.70;;;;;;5063407;28;20021;-65
2021/09/08 03:42:47;;;;;;;13.88;8.75;;;15.80;95.60;;;;;;5061659;28;20025;-66
2021/09/08 03:45:14;;;;;;;11.85;7.78;;;15.80;95.60;;;;;;5060368;28;20031;-65
2021/09/08 03:47:40;;;;;;;11.77;8.77;;;15.80;95.60;;;;;;5061307;28;20541;-66
2021/09/08 03:50:07;;;;;;;10.32;7.80;;;15.80;95.70;;;;;;5083643;28;20372;-66
2021/09/08 03:52:33;;;;;;;10.65;7.55;;;15.80;95.60;;;;;;5064020;28;20080;-66
2021/09/08 03:54:58;;;;;;;12.38;8.18;;;15.80;95.70;;;;;;5062929;28;20106;-66
2021/09/08 03:57:24;;;;;;;11.05;8.25;;;15.80;95.70;;;;;;5062188;28;20494;-66
2021/09/08 03:59:50;;;;;;;11.00;7.95;;;15.70;95.70;;;;;;5062932;28;20024;-66
2021/09/08 04:02:15;;;;;;;12.32;8.23;;;15.70;95.80;;;;;;5061882;28;20031;-64
2021/09/08 04:04:41;;;;;;;12.00;7.97;;;15.70;95.80;;;;;;5065490;28;20033;-65
2021/09/08 04:07:07;;;;;;;11.00;7.78;;;15.70;95.70;;;;;;5063638;28;20032;-65
2021/09/08 04:09:32;;;;;;;13.38;9.00;;;15.70;95.70;;;;;;5064693;28;20036;-65
2021/09/08 04:11:59;;;;;;;14.15;8.48;;;15.70;95.80;;;;;;5067041;28;20032;-65
2021/09/08 04:14:25;;;;;;;13.18;8.63;;;15.70;95.80;;;;;;5062890;28;20040;-66
2021/09/08 04:16:50;;;;;;;14.23;9.23;;;15.70;95.80;;;;;;5063407;28;20032;-66
2021/09/08 04:19:16;;;;;;;16.90;9.05;;;15.70;95.90;;;;;;5064013;28;20020;-66
2021/09/08 04:21:42;;;;;;;16.52;9.85;;;15.70;95.80;;;;;;5064725;28;20037;-65
2021/09/08 04:24:08;;;;;;;15.10;9.57;;;15.70;95.90;;;;;;5063473;28;20024;-65
2021/09/08 04:26:34;;;;;;;14.80;9.25;;;15.70;95.80;;;;;;5062122;28;20028;-66
2021/09/08 04:28:59;;;;;;;14.10;10.10;;;15.60;95.80;;;;;;5063986;28;20110;-66
2021/09/08 04:31:25;;;;;;;12.40;8.52;;;15.60;95.80;;;;;;5062057;28;20025;-68
2021/09/08 04:33:51;;;;;;;11.80;8.13;;;15.60;95.90;;;;;;5064426;28;20064;-65
2021/09/08 04:36:16;;;;;;;13.27;8.52;;;15.60;95.90;;;;;;5065167;28;20120;-65
2021/09/08 04:38:45;;;;;;;11.52;7.95;;;15.60;95.90;;;;;;5062812;28;20075;-65
2021/09/08 04:41:14;;;;;;;13.65;8.30;;;15.60;95.90;;;;;;5062964;28;20063;-67
2021/09/08 04:43:41;;;;;;;13.23;7.97;;;15.60;95.90;;;;;;5063115;28;20418;-66
2021/09/08 04:46:07;;;;;;;10.70;8.00;;;15.60;95.90;;;;;;5064127;28;20492;-66
2021/09/08 04:48:33;;;;;;;11.10;8.10;;;15.60;96.00;;;;;;5061729;28;20038;-66
2021/09/08 04:50:59;;;;;;;13.48;8.73;;;15.60;95.90;;;;;;5063720;28;20040;-66
2021/09/08 04:53:25;;;;;;;12.77;8.68;;;15.60;95.90;;;;;;5061919;28;20798;-67
2021/09/08 04:55:51;;;;;;;12.63;8.35;;;15.60;96.00;;;;;;5064170;28;20036;-68
2021/09/08 04:58:17;;;;;;;10.15;8.45;;;15.60;96.00;;;;;;5060929;28;20037;-67
2021/09/08 05:00:43;;;;;;;13.48;8.27;;;15.60;96.00;;;;;;5061034;28;20027;-67
2021/09/08 05:03:08;;;;;;;12.40;8.25;;;15.60;96.10;;;;;;5059209;28;20040;-67
2021/09/08 05:05:34;;;;;;;13.43;8.07;;;15.60;96.10;;;;;;5062390;28;20025;-69
2021/09/08 05:08:00;;;;;;;12.93;8.15;;;15.60;96.10;;;;;;5063033;28;20047;-68
2021/09/08 05:10:25;;;;;;;13.05;8.23;;;15.60;96.10;;;;;;5061620;28;20086;-68
2021/09/08 05:12:51;;;;;;;12.45;8.15;;;15.60;96.00;;;;;;5062496;28;20024;-67
2021/09/08 05:15:17;;;;;;;14.15;8.80;;;15.60;96.10;;;;;;5062398;28;20075;-67
2021/09/08 05:17:44;;;;;;;13.05;8.00;;;15.60;96.00;;;;;;5061303;28;20060;-69
2021/09/08 05:20:11;;;;;;;14.52;8.45;;;15.60;96.00;;;;;;5062100;28;20040;-66
2021/09/08 05:22:37;;;;;;;13.60;8.57;;;15.60;96.00;;;;;;5058092;28;20055;-67
2021/09/08 05:25:03;;;;;;;11.70;8.35;;;15.70;96.00;;;;;;5062111;28;20125;-67
2021/09/08 05:27:29;;;;;;;12.60;8.57;;;15.70;96.10;;;;;;5062494;28;20033;-67
2021/09/08 05:29:54;;;;;;;13.82;8.70;;;15.70;96.10;;;;;;5063425;28;20028;-66
2021/09/08 05:32:20;;;;;;;13.30;8.50;;;15.70;96.10;;;;;;5063704;28;20051;-66
2021/09/08 05:34:46;;;;;;;15.23;8.63;;;15.70;96.10;;;;;;5062387;28;20043;-65
2021/09/08 05:37:12;;;;;;;15.57;9.30;;;15.70;96.10;;;;;;5058409;28;20029;-66
2021/09/08 05:39:37;;;;;;;11.82;8.60;;;15.70;96.10;;;;;;5060144;28;20055;-67
2021/09/08 05:42:03;;;;;;;14.63;8.93;;;15.80;96.00;;;;;;5059093;28;20047;-67
2021/09/08 05:44:29;;;;;;;12.73;8.70;;;15.80;95.90;;;;;;5080313;28;20032;-67
2021/09/08 05:46:55;;;;;;;11.80;8.55;;;15.80;95.90;;;;;;5059443;28;20089;-67
2021/09/08 05:49:20;;;;;;;14.63;9.25;;;15.80;96.00;;;;;;5060493;28;20033;-67
2021/09/08 05:51:46;;;;;;;11.57;8.63;;;15.90;96.00;;;;;;5060828;28;20534;-67
2021/09/08 05:54:12;;;;;;;13.88;9.32;;;15.90;95.90;;;;;;5061840;28;20024;-67
2021/09/08 05:56:37;;;;;;;14.25;10.00;;;15.90;95.80;;;;;;5061357;28;20048;-67
2021/09/08 05:59:03;;;;;;;14.45;9.25;;;15.90;95.80;;;;;;5062641;28;20032;-68
2021/09/08 06:01:29;;;;;;;13.48;9.10;;;15.90;95.70;;;;;;5061785;28;20088;-67
2021/09/08 06:03:55;;;;;;;14.40;9.88;;;16.00;95.60;;;;;;5062728;28;20021;-67
2021/09/08 06:06:20;;;;;;;17.80;9.68;;;16.00;95.50;;;;;;5061444;28;20037;-68
2021/09/08 06:08:46;;;;;;;17.65;9.40;;;16.00;95.40;;;;;;5061101;28;20036;-68
2021/09/08 06:11:12;;;;;;;14.88;9.50;;;16.10;95.40;;;;;;5052079;28;20051;-68
2021/09/08 06:13:38;;;;;;;18.88;10.35;;;16.10;95.30;;;;;;5054695;28;20052;-67
2021/09/08 06:16:04;;;;;;;17.85;10.25;;;16.10;95.30;;;;;;5058119;28;20021;-67
2021/09/08 06:18:30;;;;;;;18.02;10.18;;;16.10;95.30;;;;;;5060333;28;20035;-67
2021/09/08 06:20:56;;;;;;;18.02;10.32;;;16.20;95.30;;;;;;5061547;28;20024;-66
2021/09/08 06:23:22;;;;;;;16.05;9.95;;;16.20;95.20;;;;;;5069166;28;20029;-68
2021/09/08 06:25:48;;;;;;;17.00;10.65;;;16.20;95.10;;;;;;5068418;28;20383;-66
2021/09/08 06:28:14;;;;;;;17.30;10.32;;;16.30;95.00;;;;;;5069313;28;20025;-65
2021/09/08 06:30:40;;;;;;;17.92;11.15;;;16.30;95.00;;;;;;5068077;28;20031;-66
2021/09/08 06:33:06;;;;;;;20.92;10.98;;;16.40;94.90;;;;;;5064920;28;20037;-66
2021/09/08 06:35:31;;;;;;;20.00;10.90;;;16.40;94.90;;;;;;5065444;28;20032;-67
2021/09/08 06:37:57;;;;;;;21.17;11.55;;;16.40;94.90;;;;;;5065664;28;20025;-67
2021/09/08 06:40:23;;;;;;;17.20;10.18;;;16.40;94.80;;;;;;5066330;28;20032;-67
2021/09/08 06:42:49;;;;;;;21.15;11.98;;;16.50;94.70;;;;;;5066796;28;20027;-67
2021/09/08 06:45:16;;;;;;;18.98;11.23;;;16.50;94.60;;;;;;5069265;28;20137;-67
2021/09/08 06:47:42;;;;;;;17.27;10.48;;;16.50;94.50;;;;;;5065189;28;20020;-67
2021/09/08 06:50:08;;;;;;;21.80;11.05;;;16.60;94.50;;;;;;5065917;28;20033;-67
2021/09/08 06:52:34;;;;;;;17.75;11.57;;;16.60;94.50;;;;;;5082886;28;20032;-67
2021/09/08 06:55:01;;;;;;;17.98;11.02;;;16.60;94.40;;;;;;5069114;28;20033;-67
2021/09/08 06:57:26;;;;;;;17.63;10.65;;;16.70;94.30;;;;;;5065969;28;20031;-66
2021/09/08 06:59:52;;;;;;;17.88;11.07;;;16.70;94.30;;;;;;5066961;28;20021;-68
2021/09/08 07:02:18;;;;;;;20.27;11.40;;;16.80;94.30;;;;;;5066462;28;20089;-67
2021/09/08 07:04:43;;;;;;;23.65;11.73;;;16.90;94.20;;;;;;5067429;28;20028;-67
2021/09/08 07:07:09;;;;;;;21.55;10.93;;;16.90;94.10;;;;;;5067574;28;20046;-67
2021/09/08 07:09:35;;;;;;;16.35;11.25;;;17.00;94.00;;;;;;5063164;28;20028;-66
2021/09/08 07:12:01;;;;;;;16.83;10.50;;;17.00;93.90;;;;;;5065596;28;20028;-67
2021/09/08 07:14:26;;;;;;;19.05;11.73;;;17.10;93.80;;;;;;5059518;28;20043;-67
2021/09/08 07:16:53;;;;;;;20.02;11.48;;;17.10;93.70;;;;;;5056514;28;20040;-65
2021/09/08 07:19:19;;;;;;;18.85;11.18;;;17.20;93.70;;;;;;5063097;28;20103;-65
2021/09/08 07:21:45;;;;;;;16.80;9.88;;;17.20;93.70;;;;;;5065105;28;20444;-67
2021/09/08 07:24:10;;;;;;;18.02;11.07;;;17.30;93.60;;;;;;5065423;28;20025;-67
2021/09/08 07:26:36;;;;;;;15.30;9.48;;;17.30;93.50;;;;;;5064447;28;20071;-66
2021/09/08 07:29:04;;;;;;;16.38;10.77;;;17.40;93.40;;;;;;5064684;28;20032;-66
2021/09/08 07:31:31;;;;;;;26.52;11.82;;;17.40;93.30;;;;;;5058270;28;20501;-66
2021/09/08 07:33:57;;;;;;;16.90;10.65;;;17.50;93.00;;;;;;5061696;28;20470;-67
2021/09/08 07:36:24;;;;;;;20.05;11.43;;;17.60;93.00;;;;;;5060128;28;20021;-66
2021/09/08 07:38:50;;;;;;;16.35;9.32;;;17.60;92.80;;;;;;5063425;28;20538;-66
2021/09/08 07:41:17;;;;;;;16.17;9.48;;;17.70;92.80;;;;;;5061044;28;20029;-66
2021/09/08 07:43:44;;;;;;;15.23;9.88;;;17.80;92.70;;;;;;5060477;28;20028;-67
2021/09/08 07:46:11;;;;;;;19.02;10.77;;;17.90;92.50;;;;;;5061694;28;20036;-67
2021/09/08 07:48:37;;;;;;;19.33;10.93;;;17.90;92.10;;;;;;5064255;28;20039;-66
2021/09/08 07:51:03;;;;;;;16.70;10.35;;;17.90;91.80;;;;;;5062111;28;20024;-67
2021/09/08 07:53:29;;;;;;;16.80;11.38;;;18.00;91.70;;;;;;5063928;28;20411;-66
2021/09/08 07:55:54;;;;;;;21.05;10.98;;;18.00;91.60;;;;;;5061279;28;20090;-66
2021/09/08 07:58:20;;;;;;;18.95;11.45;;;18.00;91.30;;;;;;5060390;28;20025;-66
2021/09/08 08:00:46;;;;;;;15.23;10.30;;;18.00;91.40;;;;;;5061827;28;20033;-67
2021/09/08 08:03:12;;;;;;;20.60;11.18;;;18.10;91.30;;;;;;5066246;28;20029;-67
2021/09/08 08:05:38;;;;;;;15.27;10.23;;;18.20;91.20;;;;;;5062289;28;20522;-67
2021/09/08 08:08:04;;;;;;;21.00;11.05;;;18.20;91.30;;;;;;5061137;28;20395;-67
2021/09/08 08:10:30;;;;;;;14.48;8.95;;;18.30;91.00;;;;;;5059309;28;20487;-67
2021/09/08 08:12:57;;;;;;;17.90;10.15;;;18.40;91.20;;;;;;5062866;28;20111;-67
2021/09/08 08:15:22;;;;;;;14.57;9.13;;;18.40;91.20;;;;;;5062258;28;20060;-66
2021/09/08 08:17:48;;;;;;;13.95;9.45;;;18.50;91.20;;;;;;5062910;28;20505;-67
2021/09/08 08:20:14;;;;;;;17.27;10.93;;;18.50;91.00;;;;;;5063484;28;20020;-67
2021/09/08 08:22:41;;;;;;;15.32;10.32;;;18.60;90.50;;;;;;5062595;28;20041;-67
2021/09/08 08:25:10;;;;;;;15.55;10.85;;;18.60;90.30;;;;;;5062518;28;20032;-67
2021/09/08 08:27:36;;;;;;;17.83;9.18;;;18.70;90.20;;;;;;5062993;28;20029;-66
2021/09/08 08:30:03;;;;;;;14.68;9.80;;;18.70;90.30;;;;;;5063071;28;20060;-65
2021/09/08 08:32:29;;;;;;;19.92;9.75;;;18.80;90.20;;;;;;5064684;28;20040;-66
2021/09/08 08:34:55;;;;;;;16.40;9.82;;;18.80;90.20;;;;;;5061623;28;20036;-66
2021/09/08 08:37:20;;;;;;;14.00;9.05;;;18.80;90.10;;;;;;5062402;28;20037;-67
2021/09/08 08:39:46;;;;;;;11.15;8.13;;;18.90;90.30;;;;;;5062376;28;20035;-66
2021/09/08 08:42:21;;;;;;;11.60;8.40;;;19.00;90.20;;;;;;5062652;28;20386;-67
2021/09/08 08:44:49;;;;;;;19.65;10.07;;;19.10;90.10;;;;;;5063200;28;20032;-65
2021/09/08 08:47:15;;;;;;;13.27;9.38;;;19.20;89.60;;;;;;5061441;28;20032;-67
2021/09/08 08:49:42;;;;;;;12.35;8.70;;;19.30;90.00;;;;;;5081562;28;20067;-67
2021/09/08 08:52:08;;;;;;;12.88;8.73;;;19.40;88.90;;;;;;5059657;28;20025;-66
2021/09/08 08:54:34;;;;;;;12.00;8.15;;;19.50;89.50;;;;;;5060995;28;20194;-67
2021/09/08 08:56:59;;;;;;;13.63;8.15;;;19.60;88.30;;;;;;5061925;28;20029;-65
2021/09/08 08:59:25;;;;;;;11.23;7.78;;;19.70;89.00;;;;;;5060415;28;20025;-66
2021/09/08 09:01:51;;;;;;;20.02;7.97;;;19.70;89.00;;;;;;5061277;28;20029;-67
2021/09/08 09:04:19;;;;;;;12.50;7.63;;;19.70;88.90;;;;;;5061064;28;20036;-66
2021/09/08 09:06:50;;;;;;;27.45;10.57;;;19.70;88.60;;;;;;5064277;28;20060;-64
2021/09/08 09:09:19;;;;;;;21.33;8.75;;;19.70;88.50;;;;;;5060845;28;20032;-66
2021/09/08 09:11:48;;;;;;;13.35;8.20;;;19.70;88.90;;;;;;5060567;28;20043;-65
2021/09/08 09:14:17;;;;;;;14.93;8.07;;;19.70;88.90;;;;;;5058898;28;20028;-66
2021/09/08 09:16:44;;;;;;;18.73;8.75;;;19.70;88.70;;;;;;5062886;28;20024;-67
2021/09/08 09:19:11;;;;;;;14.43;8.05;;;19.70;89.00;;;;;;5059813;28;20099;-66
2021/09/08 09:21:38;;;;;;;18.83;9.32;;;19.70;88.90;;;;;;5061412;28;20047;-65
2021/09/08 09:24:07;;;;;;;11.80;8.45;;;19.80;88.90;;;;;;5058896;28;20405;-66
2021/09/08 09:26:39;;;;;;;11.40;7.97;;;19.90;88.60;;;;;;5057706;28;20112;-66
2021/09/08 09:29:12;;;;;;;11.60;7.85;;;19.90;88.10;;;;;;5060991;28;20490;-66
2021/09/08 09:31:56;;;;;;;10.60;7.18;;;20.00;88.20;;;;;;5062072;28;20171;-65
2021/09/08 09:34:23;;;;;;;14.02;8.15;;;20.00;88.30;;;;;;5058885;28;20071;-69
2021/09/08 09:36:56;;;;;;;12.55;8.13;;;20.00;87.00;;;;;;5061257;28;20056;-65
2021/09/08 09:39:27;;;;;;;10.80;7.25;;;20.00;86.80;;;;;;5057272;28;20031;-66
2021/09/08 09:41:53;;;;;;;12.82;7.55;;;20.00;87.20;;;;;;5061836;28;20043;-66
2021/09/08 09:44:18;;;;;;;8.95;6.22;;;20.10;87.30;;;;;;5059974;28;20032;-65
2021/09/08 09:46:46;;;;;;;11.02;7.05;;;20.10;86.90;;;;;;5060428;28;20452;-68
2021/09/08 09:49:13;;;;;;;9.82;6.78;;;20.30;86.00;;;;;;5058654;28;20037;-66
2021/09/08 09:51:39;;;;;;;9.77;6.90;;;20.40;85.40;;;;;;5060807;28;20051;-68
2021/09/08 09:54:05;;;;;;;10.05;6.82;;;20.60;84.80;;;;;;5057493;28;20047;-68
2021/09/08 09:56:31;;;;;;;10.30;6.90;;;20.80;85.30;;;;;;5061336;28;20024;-64
2021/09/08 09:58:57;;;;;;;12.68;6.63;;;21.00;84.70;;;;;;5061159;28;20407;-66
2021/09/08 10:01:22;;;;;;;10.85;6.28;;;21.30;83.90;;;;;;5058076;28;20119;-67
2021/09/08 10:03:48;;;;;;;13.45;6.97;;;21.60;83.30;;;;;;5059731;28;20511;-66
2021/09/08 10:06:15;;;;;;;12.80;7.07;;;21.80;81.50;;;;;;5058429;28;20028;-65
2021/09/08 10:08:53;;;;;;;9.80;5.95;;;21.80;80.10;;;;;;5059552;28;20036;-66
2021/09/08 10:11:36;;;;;;;10.73;7.07;;;21.90;79.80;;;;;;5059370;28;20032;-67
2021/09/08 10:14:10;;;;;;;7.55;5.88;;;22.00;80.00;;;;;;5058714;28;20029;-69
2021/09/08 10:16:36;;;;;;;8.23;5.82;;;22.00;78.60;;;;;;5061621;28;20414;-69
2021/09/08 10:19:06;;;;;;;8.63;5.65;;;22.00;78.80;;;;;;5058641;28;20039;-70
2021/09/08 10:21:32;;;;;;;8.05;5.82;;;22.20;78.90;;;;;;5061394;28;20024;-70
2021/09/08 10:24:00;;;;;;;10.43;5.65;;;22.30;79.00;;;;;;5059853;28;20060;-70
2021/09/08 10:26:29;;;;;;;9.10;6.00;;;22.30;77.90;;;;;;5058886;28;20192;-71
2021/09/08 10:28:58;;;;;;;9.63;5.63;;;22.40;77.90;;;;;;5057937;28;20029;-70
2021/09/08 10:31:25;;;;;;;8.40;6.03;;;22.50;77.20;;;;;;5061446;28;20037;-70
2021/09/08 10:33:56;;;;;;;11.20;6.15;;;22.60;77.50;;;;;;5058351;28;20059;-71
2021/09/08 10:36:22;;;;;;;8.27;6.20;;;22.60;76.80;;;;;;5058772;28;20029;-72
2021/09/08 10:39:06;;;;;;;10.25;6.53;;;22.70;76.80;;;;;;5059550;28;20109;-74
2021/09/08 10:41:59;;;;;;;11.32;6.88;;;22.80;74.40;;;;;;5064565;28;20063;-70
2021/09/08 10:44:46;;;;;;;8.65;6.35;;;22.90;74.40;;;;;;5064002;28;20507;-71
2021/09/08 10:47:13;;;;;;;9.43;6.28;;;23.00;74.90;;;;;;5065152;28;20475;-71
2021/09/08 10:49:42;;;;;;;11.88;7.20;;;23.10;75.20;;;;;;5062341;28;20036;-68
2021/09/08 10:52:09;;;;;;;7.70;6.05;;;23.20;74.70;;;;;;5063119;28;20078;-70
2021/09/08 10:55:14;;;;;;;9.98;7.07;;;23.40;75.70;;;;;;5063277;28;20845;-70
2021/09/08 10:57:43;;;;;;;11.90;7.53;;;23.70;75.10;;;;;;4995633;28;20038;-66
2021/09/08 11:00:14;;;;;;;11.40;7.60;;;23.80;74.10;;;;;;5045183;28;20116;-66
2021/09/08 11:02:43;;;;;;;10.23;7.10;;;24.00;74.60;;;;;;5061717;28;20900;-67
2021/09/08 11:05:10;;;;;;;9.88;6.70;;;24.20;74.50;;;;;;5059666;28;20032;-66
2021/09/08 11:07:43;;;;;;;10.93;7.63;;;24.30;73.90;;;;;;5061280;28;20044;-65
2021/09/08 11:10:10;;;;;;;11.05;7.03;;;24.40;71.10;;;;;;5064840;28;20025;-67
2021/09/08 11:12:56;;;;;;;10.35;6.30;;;24.90;72.00;;;;;;5065948;28;20555;-66
2021/09/08 11:15:33;;;;;;;8.57;6.93;;;25.50;70.20;;;;;;5064671;28;20050;-67
2021/09/08 11:17:59;;;;;;;8.77;6.43;;;26.10;67.20;;;;;;5067243;28;20029;-66
2021/09/08 11:20:24;;;;;;;9.80;6.78;;;26.90;67.10;;;;;;5059251;28;20032;-67
2021/09/08 11:23:11;;;;;;;13.50;6.90;;;27.40;62.90;;;;;;5065199;28;20055;-66
2021/09/08 11:25:38;;;;;;;12.38;6.70;;;27.80;61.40;;;;;;5062632;28;20029;-67
2021/09/08 11:28:07;;;;;;;8.88;6.43;;;28.10;61.30;;;;;;5065641;28;20394;-66
2021/09/08 11:30:35;;;;;;;6.55;5.68;;;28.30;61.30;;;;;;5064190;28;20082;-67
2021/09/08 11:33:08;;;;;;;10.32;6.85;;;28.60;60.30;;;;;;5064994;28;20047;-66
2021/09/08 11:35:46;;;;;;;8.57;5.82;;;28.80;57.20;;;;;;5063073;28;20028;-67
2021/09/08 11:38:24;;;;;;;8.05;6.43;;;29.90;56.20;;;;;;5064216;28;20037;-67
2021/09/08 11:40:52;;;;;;;8.23;6.40;;;30.90;53.80;;;;;;5064972;28;20089;-67
2021/09/08 11:43:33;;;;;;;7.85;6.40;;;32.10;50.60;;;;;;5063398;28;20032;-67
2021/09/08 11:46:17;;;;;;;8.63;6.20;;;32.90;48.90;;;;;;5065164;28;20086;-66
2021/09/08 11:48:44;;;;;;;8.30;5.90;;;33.50;46.20;;;;;;5060603;28;21267;-67
2021/09/08 11:51:12;;;;;;;6.68;5.00;;;33.40;44.30;;;;;;5084763;28;20378;-67
2021/09/08 11:53:38;;;;;;;10.93;6.15;;;33.50;45.10;;;;;;5061058;28;20043;-67
2021/09/08 11:56:07;;;;;;;7.53;5.18;;;33.20;44.70;;;;;;5063416;28;20033;-67
2021/09/08 11:58:33;;;;;;;8.00;4.90;;;32.50;45.50;;;;;;5064516;28;20060;-66
2021/09/08 12:01:04;;;;;;;9.13;5.40;;;31.90;44.40;;;;;;5062560;28;20072;-67
2021/09/08 12:03:30;;;;;;;;;;;31.40;47.10;;;;;;5061792;28;20077;-67
2021/09/08 12:06:12;;;;;;;6.63;5.40;;;30.80;48.40;;;;;;5059328;28;20539;-66
2021/09/08 12:08:47;;;;;;;6.43;4.68;;;30.20;48.10;;;;;;5061072;28;20037;-67
2021/09/08 12:11:42;;;;;;;5.63;4.45;;;29.80;49.10;;;;;;5061217;28;20029;-68
2021/09/08 12:14:18;;;;;;;8.18;4.80;;;29.60;49.70;;;;;;5060274;28;20097;-67
2021/09/08 12:16:45;;;;;;;5.13;4.07;;;29.30;46.60;;;;;;5060749;28;20514;-66
2021/09/08 12:19:13;;;;;;;5.95;4.47;;;29.60;49.00;;;;;;5061647;28;20033;-67
2021/09/08 12:21:38;;;;;;;6.82;4.68;;;29.70;47.00;;;;;;5062262;28;20024;-67
2021/09/08 12:24:27;;;;;;;7.95;4.65;;;29.90;47.10;;;;;;5061752;28;20114;-66
2021/09/08 12:26:54;;;;;;;8.52;5.13;;;30.40;47.70;;;;;;5060552;28;20043;-66
2021/09/08 12:29:21;;;;;;;4.50;3.88;;;30.50;45.90;;;;;;5061120;28;20501;-66
2021/09/08 12:31:51;;;;;;;5.10;4.15;;;31.00;44.10;;;;;;5056691;28;20079;-70
2021/09/08 12:34:17;;;;;;;9.43;3.72;;;31.50;45.10;;;;;;5061973;28;20032;-68
2021/09/08 12:36:44;;;;;;;4.60;3.70;;;31.90;43.00;;;;;;5060338;28;20029;-69